Time;durP1;ratioP1;P1;durP2;ratioP2;P2;SDS_P1;SDS_P2;PMS_P1;PMS_P2;Temp;Humidity;BMP_temperature;BMP_pressure;BME280_temperature;BME280_humidity;BME280_pressure;Samples;Min_cycle;Max_cycle;Signal;HPM_P1;HPM_P2
2021/06/16 00:00:00;;;;;;;6.80;2.87;;;18.50;99.90;;;;;;5077592;28;20661;-77
2021/06/16 00:02:29;;;;;;;10.67;3.30;;;18.40;99.90;;;;;;5082922;28;20234;-75
2021/06/16 00:04:55;;;;;;;6.97;3.07;;;18.50;99.90;;;;;;5085753;28;20289;-76
2021/06/16 00:07:22;;;;;;;6.73;2.83;;;18.50;99.90;;;;;;5085382;28;20281;-76
2021/06/16 00:09:49;;;;;;;5.43;2.70;;;18.50;99.90;;;;;;5076446;28;20646;-76
2021/06/16 00:12:16;;;;;;;4.60;2.60;;;18.40;99.90;;;;;;5068748;28;20195;-76
2021/06/16 00:14:43;;;;;;;8.03;2.93;;;18.30;99.90;;;;;;5089840;28;20290;-76
2021/06/16 00:17:11;;;;;;;14.07;3.20;;;18.50;99.90;;;;;;5080257;28;20222;-76
2021/06/16 00:19:39;;;;;;;5.37;3.10;;;18.40;99.90;;;;;;5086452;28;20229;-75
2021/06/16 00:22:06;;;;;;;6.40;2.97;;;18.40;99.90;;;;;;5081594;28;20285;-76
2021/06/16 00:24:34;;;;;;;5.73;2.83;;;18.30;99.90;;;;;;5075447;28;20191;-76
2021/06/16 00:27:01;;;;;;;9.57;3.43;;;18.20;99.90;;;;;;5085945;28;20191;-76
2021/06/16 00:29:28;;;;;;;6.87;3.00;;;18.20;99.90;;;;;;5080512;28;20274;-76
2021/06/16 00:31:55;;;;;;;8.70;3.00;;;18.10;99.90;;;;;;5085345;28;20222;-76
2021/06/16 00:34:22;;;;;;;11.90;3.17;;;18.00;99.90;;;;;;5090783;28;20286;-76
2021/06/16 00:36:50;;;;;;;5.43;3.00;;;18.00;99.90;;;;;;5081638;28;20265;-77
2021/06/16 00:39:17;;;;;;;4.93;3.50;;;18.00;99.90;;;;;;5088446;28;20736;-76
2021/06/16 00:41:44;;;;;;;9.97;3.20;;;18.00;99.90;;;;;;5087979;28;20195;-75
2021/06/16 00:44:12;;;;;;;9.07;3.23;;;18.00;99.90;;;;;;5093148;28;20195;-76
2021/06/16 00:46:39;;;;;;;15.50;3.60;;;17.90;99.90;;;;;;5092409;28;20252;-76
2021/06/16 00:49:06;;;;;;;8.47;3.20;;;17.90;99.90;;;;;;5092770;28;20190;-76
2021/06/16 00:51:33;;;;;;;11.20;3.33;;;17.90;99.90;;;;;;5092374;28;20599;-77
2021/06/16 00:54:09;;;;;;;7.20;2.80;;;17.90;99.90;;;;;;5085764;28;20298;-76
2021/06/16 00:56:37;;;;;;;10.30;2.97;;;18.00;99.90;;;;;;5076284;28;20188;-76
2021/06/16 00:59:04;;;;;;;5.90;2.90;;;17.90;99.90;;;;;;5092962;28;20285;-76
2021/06/16 01:01:31;;;;;;;6.53;3.20;;;17.90;99.90;;;;;;5096569;28;20233;-76
2021/06/16 01:04:06;;;;;;;8.33;3.00;;;17.90;99.90;;;;;;5091559;28;20656;-76
2021/06/16 01:06:39;;;;;;;5.80;3.10;;;17.90;99.90;;;;;;5096937;28;20209;-76
2021/06/16 01:09:15;;;;;;;6.17;3.27;;;17.90;99.90;;;;;;5097235;28;20201;-76
2021/06/16 01:11:55;;;;;;;7.40;3.07;;;17.90;99.90;;;;;;5096564;28;20213;-76
2021/06/16 01:14:28;;;;;;;6.30;3.13;;;17.80;99.90;;;;;;5096769;28;20201;-76
2021/06/16 01:16:59;;;;;;;4.93;2.93;;;17.90;99.90;;;;;;5096720;28;20641;-76
2021/06/16 01:19:42;;;;;;;7.07;2.80;;;17.90;99.90;;;;;;5097200;28;20287;-76
2021/06/16 01:22:23;;;;;;;7.30;3.50;;;17.80;99.90;;;;;;5096515;28;20191;-76
2021/06/16 01:24:55;;;;;;;7.93;3.00;;;17.80;99.90;;;;;;5093874;28;20868;-77
2021/06/16 01:27:26;;;;;;;9.87;3.20;;;17.70;99.90;;;;;;5088612;28;20281;-75
2021/06/16 01:29:55;;;;;;;8.47;3.40;;;17.60;99.90;;;;;;5086742;28;20221;-76
2021/06/16 01:32:23;;;;;;;8.50;3.23;;;17.60;99.90;;;;;;5084529;28;20310;-76
2021/06/16 01:34:51;;;;;;;10.07;3.20;;;17.50;99.90;;;;;;5088612;28;20186;-77
2021/06/16 01:37:18;;;;;;;7.53;3.13;;;17.50;99.90;;;;;;5095981;28;20698;-76
2021/06/16 01:39:46;;;;;;;9.93;3.37;;;17.50;99.90;;;;;;5080572;28;20315;-76
2021/06/16 01:42:16;;;;;;;8.57;2.80;;;17.40;99.90;;;;;;5079885;28;20612;-76
2021/06/16 01:44:46;;;;;;;6.07;3.33;;;17.50;99.90;;;;;;5086997;28;20542;-76
2021/06/16 01:47:15;;;;;;;11.17;3.37;;;17.40;99.90;;;;;;5081636;28;20619;-76
2021/06/16 01:49:43;;;;;;;7.10;3.33;;;17.40;99.90;;;;;;5088325;28;20646;-76
2021/06/16 01:52:09;;;;;;;6.97;3.30;;;17.40;99.90;;;;;;5085512;28;20307;-76
2021/06/16 01:54:38;;;;;;;13.20;3.23;;;17.30;99.90;;;;;;5088907;28;20191;-77
2021/06/16 01:57:06;;;;;;;9.13;3.37;;;17.40;99.90;;;;;;5087319;28;20278;-77
2021/06/16 01:59:33;;;;;;;5.37;3.07;;;17.30;99.90;;;;;;5092706;28;20278;-76
2021/06/16 02:02:02;;;;;;;9.30;3.90;;;17.20;99.90;;;;;;5084205;28;20282;-76
2021/06/16 02:04:29;;;;;;;10.03;3.80;;;17.30;99.90;;;;;;5080523;28;20285;-77
2021/06/16 02:07:02;;;;;;;10.13;3.50;;;17.20;99.90;;;;;;5088496;28;20289;-77
2021/06/16 02:09:31;;;;;;;7.97;3.30;;;17.20;99.90;;;;;;5091421;28;20199;-77
2021/06/16 02:11:58;;;;;;;9.90;3.40;;;17.00;99.90;;;;;;5087399;28;20215;-77
2021/06/16 02:14:26;;;;;;;6.93;3.57;;;17.20;99.90;;;;;;5079190;28;20697;-77
2021/06/16 02:16:57;;;;;;;8.33;3.70;;;17.20;99.90;;;;;;5087584;28;20243;-76
2021/06/16 02:19:29;;;;;;;10.80;3.30;;;17.30;99.90;;;;;;5086861;28;20203;-76
2021/06/16 02:21:57;;;;;;;6.47;3.30;;;17.30;99.90;;;;;;5088152;28;20286;-77
2021/06/16 02:24:24;;;;;;;10.40;3.70;;;17.20;99.90;;;;;;5088771;28;20218;-76
2021/06/16 02:26:52;;;;;;;11.77;3.47;;;17.10;99.90;;;;;;5082924;28;20274;-76
2021/06/16 02:29:20;;;;;;;7.80;3.67;;;17.10;99.90;;;;;;5082769;28;20196;-76
2021/06/16 02:31:47;;;;;;;9.83;4.00;;;17.10;99.90;;;;;;5086117;28;20577;-75
2021/06/16 02:34:14;;;;;;;6.47;3.30;;;17.10;99.90;;;;;;5087057;28;20285;-76
2021/06/16 02:36:45;;;;;;;10.90;3.87;;;17.10;99.90;;;;;;5086888;28;20252;-76
2021/06/16 02:39:14;;;;;;;9.27;3.80;;;17.00;99.90;;;;;;5094475;28;20252;-76
2021/06/16 02:41:43;;;;;;;12.77;3.50;;;17.00;99.90;;;;;;5089956;28;20199;-76
2021/06/16 02:44:10;;;;;;;11.73;4.10;;;17.00;99.90;;;;;;5086116;28;20209;-76
2021/06/16 02:46:39;;;;;;;6.80;3.30;;;17.00;99.90;;;;;;5085680;28;20282;-76
2021/06/16 02:49:08;;;;;;;8.60;3.43;;;17.00;99.90;;;;;;5078691;28;20616;-76
2021/06/16 02:51:38;;;;;;;12.47;3.50;;;17.00;99.90;;;;;;5083538;28;20315;-76
2021/06/16 02:54:09;;;;;;;9.70;3.50;;;17.10;99.90;;;;;;5088153;28;20226;-76
2021/06/16 02:56:39;;;;;;;5.83;3.50;;;17.00;99.90;;;;;;5093196;28;20210;-77
2021/06/16 02:59:07;;;;;;;6.07;3.33;;;17.00;99.90;;;;;;5094522;28;20191;-76
2021/06/16 03:01:36;;;;;;;7.53;3.87;;;17.00;99.90;;;;;;5092037;28;20501;-76
2021/06/16 03:04:05;;;;;;;8.97;3.80;;;17.00;99.90;;;;;;5082797;28;20282;-76
2021/06/16 03:06:33;;;;;;;10.60;4.17;;;16.90;99.90;;;;;;5094151;28;20201;-77
2021/06/16 03:09:01;;;;;;;8.77;3.40;;;16.80;99.90;;;;;;5093736;28;20553;-76
2021/06/16 03:11:32;;;;;;;15.30;3.80;;;16.80;99.90;;;;;;5093809;28;20306;-76
2021/06/16 03:14:01;;;;;;;6.40;3.60;;;16.80;99.90;;;;;;5094253;28;20199;-76
2021/06/16 03:16:29;;;;;;;7.40;3.40;;;16.80;99.90;;;;;;5091783;28;20195;-76
2021/06/16 03:18:57;;;;;;;9.93;3.53;;;16.80;99.90;;;;;;5090050;28;20282;-76
2021/06/16 03:21:24;;;;;;;6.70;3.57;;;16.80;99.90;;;;;;5083133;28;20203;-77
2021/06/16 03:23:52;;;;;;;11.63;4.03;;;16.70;99.90;;;;;;5083320;28;20251;-76
2021/06/16 03:26:19;;;;;;;6.67;4.13;;;16.70;99.90;;;;;;5078239;28;20285;-76
2021/06/16 03:28:49;;;;;;;6.13;3.73;;;16.80;99.90;;;;;;5080897;28;20217;-76
2021/06/16 03:31:18;;;;;;;8.70;3.73;;;16.80;99.90;;;;;;5083163;28;20304;-76
2021/06/16 03:33:46;;;;;;;7.27;3.40;;;16.80;99.90;;;;;;5085661;28;20191;-77
2021/06/16 03:36:13;;;;;;;7.27;3.13;;;16.60;99.90;;;;;;5084268;28;20277;-76
2021/06/16 03:38:43;;;;;;;10.17;3.73;;;16.60;99.90;;;;;;5085865;28;20199;-76
2021/06/16 03:41:10;;;;;;;9.13;3.70;;;16.80;99.90;;;;;;5088711;28;20236;-76
2021/06/16 03:43:37;;;;;;;10.20;3.80;;;16.90;99.90;;;;;;5088879;28;20195;-76
2021/06/16 03:46:08;;;;;;;8.83;3.90;;;16.90;99.90;;;;;;5085830;28;20225;-76
2021/06/16 03:48:35;;;;;;;7.73;3.93;;;17.00;99.90;;;;;;5088376;28;20218;-75
2021/06/16 03:51:05;;;;;;;7.57;3.87;;;17.00;99.90;;;;;;5079493;28;20278;-77
2021/06/16 03:53:32;;;;;;;8.40;3.77;;;17.10;99.90;;;;;;5091342;28;20190;-77
2021/06/16 03:56:00;;;;;;;6.73;3.37;;;17.20;99.90;;;;;;5081708;28;20751;-76
2021/06/16 03:58:27;;;;;;;8.10;3.77;;;17.20;99.90;;;;;;5091616;28;20218;-76
2021/06/16 04:00:55;;;;;;;9.60;3.70;;;17.30;99.90;;;;;;5085504;28;20269;-76
2021/06/16 04:03:26;;;;;;;8.40;3.53;;;17.20;99.90;;;;;;5085189;28;20208;-76
2021/06/16 04:05:52;;;;;;;7.17;3.70;;;17.20;99.90;;;;;;5083788;28;20704;-76
2021/06/16 04:08:21;;;;;;;9.23;4.10;;;17.10;99.90;;;;;;5091682;28;20278;-76
2021/06/16 04:10:49;;;;;;;10.43;3.60;;;17.20;99.90;;;;;;5090035;28;20278;-76
2021/06/16 04:13:17;;;;;;;10.60;4.27;;;17.10;99.90;;;;;;5082598;28;20764;-76
2021/06/16 04:15:44;;;;;;;10.43;4.07;;;17.10;99.90;;;;;;5086327;28;20534;-76
2021/06/16 04:18:11;;;;;;;6.83;4.03;;;17.20;99.90;;;;;;5087125;28;20282;-76
2021/06/16 04:20:39;;;;;;;10.40;4.10;;;17.30;99.90;;;;;;5088339;28;20194;-76
2021/06/16 04:23:06;;;;;;;11.73;4.27;;;17.40;99.90;;;;;;5086710;28;20186;-77
2021/06/16 04:25:33;;;;;;;9.80;3.80;;;17.50;99.90;;;;;;5082427;28;20601;-77
2021/06/16 04:28:00;;;;;;;11.80;4.30;;;17.60;99.90;;;;;;5083277;28;20186;-77
2021/06/16 04:30:28;;;;;;;7.93;3.77;;;17.80;99.90;;;;;;5081940;28;20211;-76
2021/06/16 04:32:55;;;;;;;12.37;3.80;;;17.90;99.90;;;;;;5096637;28;20223;-77
2021/06/16 04:35:22;;;;;;;11.90;3.77;;;17.90;99.90;;;;;;5083951;28;21463;-76
2021/06/16 04:37:50;;;;;;;16.50;4.20;;;18.10;99.90;;;;;;5088207;28;20263;-77
2021/06/16 04:40:18;;;;;;;10.60;3.97;;;18.30;99.90;;;;;;5083260;28;20704;-78
2021/06/16 04:42:44;;;;;;;10.73;3.83;;;18.50;99.90;;;;;;5091583;28;20297;-78
2021/06/16 04:45:14;;;;;;;6.93;3.50;;;18.90;99.90;;;;;;5091284;28;20313;-76
2021/06/16 04:47:41;;;;;;;12.50;4.23;;;19.30;99.90;;;;;;5082638;28;20191;-78
2021/06/16 04:50:10;;;;;;;12.77;4.00;;;19.90;99.90;;;;;;5083859;28;20235;-78
2021/06/16 04:52:37;;;;;;;13.17;4.60;;;20.60;99.90;;;;;;5078557;28;20234;-77
2021/06/16 04:55:06;;;;;;;12.17;4.27;;;21.40;99.90;;;;;;5086030;28;20277;-77
2021/06/16 04:57:33;;;;;;;12.03;4.57;;;22.10;99.90;;;;;;5080466;28;20233;-77
2021/06/16 05:00:00;;;;;;;7.97;4.10;;;22.70;99.90;;;;;;5084458;28;20203;-77
2021/06/16 05:02:27;;;;;;;8.73;4.32;;;23.50;99.90;;;;;;5073926;28;20225;-77
2021/06/16 05:04:54;;;;;;;8.65;4.20;;;24.10;99.90;;;;;;5082182;28;20222;-77
2021/06/16 05:07:21;;;;;;;14.73;4.18;;;24.60;99.90;;;;;;5079897;28;20215;-77
2021/06/16 05:09:47;;;;;;;10.10;4.10;;;25.00;99.90;;;;;;5078936;28;20281;-77
2021/06/16 05:12:16;;;;;;;8.77;4.05;;;25.20;99.90;;;;;;5081654;28;20250;-76
2021/06/16 05:14:43;;;;;;;7.35;4.03;;;25.30;99.90;;;;;;5074244;28;20226;-77
2021/06/16 05:17:10;;;;;;;9.50;3.85;;;25.10;99.90;;;;;;5079737;28;20278;-77
2021/06/16 05:19:38;;;;;;;8.35;3.63;;;24.60;99.90;;;;;;5079066;28;20652;-78
2021/06/16 05:22:10;;;;;;;9.60;4.45;;;24.10;99.90;;;;;;5080216;28;20227;-75
2021/06/16 05:24:38;;;;;;;9.00;4.05;;;23.80;99.90;;;;;;5088067;28;20222;-77
2021/06/16 05:27:06;;;;;;;11.00;4.38;;;23.50;99.90;;;;;;5104550;28;20195;-76
2021/06/16 05:29:34;;;;;;;12.95;4.47;;;23.40;99.90;;;;;;5103354;28;20191;-76
2021/06/16 05:32:01;;;;;;;8.45;4.20;;;23.80;99.90;;;;;;5104789;28;20573;-77
2021/06/16 05:34:28;;;;;;;7.95;4.03;;;24.40;99.90;;;;;;5084593;28;20294;-77
2021/06/16 05:36:55;;;;;;;8.93;3.83;;;24.90;99.90;;;;;;5090971;28;20322;-78
2021/06/16 05:39:22;;;;;;;14.18;4.32;;;25.50;99.90;;;;;;5100044;28;20198;-76
2021/06/16 05:41:50;;;;;;;13.65;4.30;;;26.20;99.90;;;;;;5095880;28;20199;-77
2021/06/16 05:44:17;;;;;;;7.93;3.58;;;26.70;99.90;;;;;;5083365;28;20210;-77
2021/06/16 05:46:45;;;;;;;9.52;4.13;;;26.70;99.90;;;;;;5096111;28;20223;-78
2021/06/16 05:49:12;;;;;;;16.67;4.07;;;27.00;99.90;;;;;;5088852;28;20219;-77
2021/06/16 05:51:39;;;;;;;10.73;4.05;;;27.40;99.90;;;;;;5090145;28;20282;-78
2021/06/16 05:54:09;;;;;;;6.50;3.65;;;27.50;99.90;;;;;;5086465;28;20219;-77
2021/06/16 05:56:36;;;;;;;13.45;4.47;;;28.00;99.90;;;;;;5094123;28;20882;-77
2021/06/16 05:59:04;;;;;;;11.43;4.05;;;28.70;99.90;;;;;;5107198;28;20198;-77
2021/06/16 06:01:31;;;;;;;13.18;4.10;;;29.10;99.90;;;;;;5094339;28;20289;-77
2021/06/16 06:04:01;;;;;;;10.82;4.05;;;29.20;99.90;;;;;;5083350;28;20195;-77
2021/06/16 06:06:28;;;;;;;12.38;4.13;;;29.80;99.90;;;;;;5090493;28;20209;-78
2021/06/16 06:08:55;;;;;;;9.88;3.40;;;29.90;99.90;;;;;;5086965;28;20618;-78
2021/06/16 06:11:22;;;;;;;8.73;4.18;;;29.90;99.90;;;;;;5091287;28;20281;-77
2021/06/16 06:13:49;;;;;;;10.15;4.43;;;30.20;99.90;;;;;;5081465;28;20314;-76
2021/06/16 06:16:16;;;;;;;10.93;4.45;;;30.60;99.90;;;;;;5077939;28;20665;-76
2021/06/16 06:18:43;;;;;;;12.45;4.13;;;30.50;99.90;;;;;;5095546;28;20227;-79
2021/06/16 06:21:12;;;;;;;9.63;3.92;;;30.50;99.90;;;;;;5083925;28;20187;-78
2021/06/16 06:23:39;;;;;;;9.75;4.00;;;30.80;99.90;;;;;;5075841;28;20306;-78
2021/06/16 06:26:06;;;;;;;13.27;4.55;;;30.90;99.90;;;;;;5075209;28;20516;-77
2021/06/16 06:28:32;;;;;;;13.57;4.30;;;30.80;99.90;;;;;;5075588;28;20698;-78
2021/06/16 06:30:59;;;;;;;11.85;4.03;;;30.90;99.90;;;;;;5075121;28;20217;-78
2021/06/16 06:33:26;;;;;;;10.20;4.05;;;30.90;99.90;;;;;;5083828;28;20219;-78
2021/06/16 06:35:53;;;;;;;9.43;4.25;;;31.30;99.90;;;;;;5095342;28;20186;-78
2021/06/16 06:38:21;;;;;;;9.48;4.10;;;31.70;99.90;;;;;;5095175;28;20222;-79
2021/06/16 06:40:48;;;;;;;11.82;3.90;;;32.20;99.90;;;;;;5095184;28;20325;-77
2021/06/16 06:43:15;;;;;;;16.65;4.47;;;32.20;99.90;;;;;;5095105;28;20194;-78
2021/06/16 06:45:42;;;;;;;10.30;4.60;;;32.40;99.90;;;;;;5083986;28;20226;-78
2021/06/16 06:48:09;;;;;;;7.60;3.80;;;32.60;99.90;;;;;;5075709;28;20642;-78
2021/06/16 06:50:36;;;;;;;9.07;4.20;;;32.50;99.90;;;;;;5075644;28;20656;-79
2021/06/16 06:53:07;;;;;;;11.85;4.20;;;32.70;99.90;;;;;;5078363;28;20298;-77
2021/06/16 06:55:37;;;;;;;10.57;3.90;;;33.30;99.90;;;;;;5076200;28;20179;-78
2021/06/16 06:58:04;;;;;;;7.15;4.22;;;33.20;99.90;;;;;;5082339;28;20636;-78
2021/06/16 07:00:31;;;;;;;9.85;4.50;;;33.30;99.90;;;;;;5084422;28;20194;-78
2021/06/16 07:02:58;;;;;;;11.18;4.50;;;33.40;99.90;;;;;;5084148;28;20621;-78
2021/06/16 07:05:25;;;;;;;13.98;4.53;;;33.40;99.90;;;;;;5083217;28;20188;-78
2021/06/16 07:07:52;;;;;;;12.60;4.00;;;33.50;99.90;;;;;;5093656;28;20282;-78
2021/06/16 07:10:19;;;;;;;11.88;4.38;;;33.60;99.90;;;;;;5082126;28;20188;-79
2021/06/16 07:12:48;;;;;;;9.30;4.50;;;33.60;99.90;;;;;;5088049;28;21445;-79
2021/06/16 07:15:15;;;;;;;11.25;3.90;;;33.90;99.90;;;;;;5078934;28;20199;-77
2021/06/16 07:17:42;;;;;;;15.75;4.55;;;33.60;99.90;;;;;;5083690;28;20230;-77
2021/06/16 07:20:11;;;;;;;12.55;4.40;;;33.60;99.90;;;;;;5082115;28;20217;-79
2021/06/16 07:22:37;;;;;;;13.55;4.53;;;33.30;99.90;;;;;;5072418;28;20539;-78
2021/06/16 07:25:07;;;;;;;13.75;4.38;;;33.80;99.90;;;;;;5076062;28;20286;-77
2021/06/16 07:27:34;;;;;;;13.75;4.22;;;34.10;99.90;;;;;;5078781;28;20210;-77
2021/06/16 07:30:04;;;;;;;17.67;5.28;;;33.60;99.90;;;;;;5083668;28;20277;-79
2021/06/16 07:32:31;;;;;;;11.68;4.70;;;33.90;99.90;;;;;;5082310;28;20234;-78
2021/06/16 07:34:59;;;;;;;8.60;3.92;;;34.00;99.90;;;;;;5091453;28;20214;-77
2021/06/16 07:37:26;;;;;;;14.90;4.30;;;34.40;99.90;;;;;;5081796;28;20195;-77
2021/06/16 07:39:54;;;;;;;13.85;4.78;;;34.30;99.90;;;;;;5080625;28;20221;-77
2021/06/16 07:42:21;;;;;;;8.45;4.22;;;34.80;99.90;;;;;;5079397;28;20198;-79
2021/06/16 07:44:48;;;;;;;12.45;4.50;;;35.60;99.90;;;;;;5085625;28;20263;-77
2021/06/16 07:47:17;;;;;;;10.27;4.03;;;35.60;99.90;;;;;;5090102;28;20421;-77
2021/06/16 07:49:44;;;;;;;14.50;4.35;;;35.70;99.90;;;;;;5086041;28;20222;-77
2021/06/16 07:52:11;;;;;;;14.07;3.90;;;35.70;99.90;;;;;;5094253;28;20282;-77
2021/06/16 07:54:38;;;;;;;7.30;4.20;;;36.00;99.90;;;;;;5086172;28;20215;-77
2021/06/16 07:57:05;;;;;;;14.55;4.72;;;35.80;99.90;;;;;;5077352;28;20278;-77
2021/06/16 07:59:32;;;;;;;17.98;4.57;;;35.40;99.90;;;;;;5068549;28;20294;-78
2021/06/16 08:01:59;;;;;;;13.43;4.38;;;35.40;99.90;;;;;;5075352;28;20198;-78
2021/06/16 08:04:27;;;;;;;13.07;4.55;;;35.50;99.90;;;;;;5093698;28;20277;-77
2021/06/16 08:06:56;;;;;;;8.98;3.83;;;36.20;99.90;;;;;;5090339;28;20194;-78
2021/06/16 08:09:23;;;;;;;10.98;4.38;;;36.60;99.90;;;;;;5079497;28;20199;-78
2021/06/16 08:11:51;;;;;;;6.85;4.20;;;36.40;99.90;;;;;;5085634;28;20734;-78
2021/06/16 08:14:20;;;;;;;10.13;4.43;;;36.70;99.90;;;;;;5077311;28;20672;-78
2021/06/16 08:16:48;;;;;;;12.13;4.68;;;36.30;99.90;;;;;;5079727;28;20218;-78
2021/06/16 08:19:15;;;;;;;10.38;3.90;;;37.40;99.90;;;;;;5082910;28;20244;-78
2021/06/16 08:21:43;;;;;;;11.90;4.40;;;37.90;99.90;;;;;;5091278;28;20240;-77
2021/06/16 08:24:10;;;;;;;15.35;4.25;;;37.70;99.90;;;;;;5083240;28;20195;-79
2021/06/16 08:26:37;;;;;;;12.63;4.93;;;37.70;99.90;;;;;;5085233;28;20187;-79
2021/06/16 08:29:04;;;;;;;8.60;4.63;;;37.50;99.90;;;;;;5079268;28;20682;-78
2021/06/16 08:31:31;;;;;;;7.60;4.25;;;37.60;99.90;;;;;;5077307;28;20266;-78
2021/06/16 08:33:58;;;;;;;7.15;5.00;;;38.00;99.90;;;;;;5081617;28;20208;-78
2021/06/16 08:36:25;;;;;;;9.63;4.65;;;37.70;99.90;;;;;;5084724;28;20227;-78
2021/06/16 08:38:53;;;;;;;11.70;4.65;;;37.60;99.90;;;;;;5083238;28;20202;-78
2021/06/16 08:41:21;;;;;;;10.55;4.85;;;38.10;99.90;;;;;;5084738;28;20236;-78
2021/06/16 08:43:48;;;;;;;10.90;4.65;;;37.30;99.90;;;;;;5079502;28;20199;-78
2021/06/16 08:46:16;;;;;;;9.13;4.60;;;37.00;99.90;;;;;;5081238;28;20195;-78
2021/06/16 08:48:45;;;;;;;12.65;5.20;;;37.20;99.90;;;;;;5085789;28;20213;-76
2021/06/16 08:51:15;;;;;;;18.45;5.00;;;36.90;99.90;;;;;;5083334;28;20237;-77
2021/06/16 08:53:43;;;;;;;12.63;5.32;;;36.80;99.90;;;;;;5084251;28;20219;-78
2021/06/16 08:56:13;;;;;;;15.40;5.72;;;37.40;99.90;;;;;;5084350;28;20327;-78
2021/06/16 08:58:41;;;;;;;7.18;4.90;;;38.50;99.90;;;;;;5086220;28;20664;-77
2021/06/16 09:01:12;;;;;;;12.30;5.03;;;39.20;99.90;;;;;;5087802;28;20226;-77
2021/06/16 09:03:39;;;;;;;15.88;5.30;;;40.50;99.90;;;;;;5083858;28;20517;-78
2021/06/16 09:06:07;;;;;;;12.18;5.53;;;40.40;99.90;;;;;;5081505;28;20203;-77
2021/06/16 09:08:51;;;;;;;10.75;5.40;;;40.20;99.90;;;;;;5079739;28;20281;-77
2021/06/16 09:11:19;;;;;;;16.88;6.30;;;39.60;99.90;;;;;;5078939;28;20666;-77
2021/06/16 09:13:47;;;;;;;12.48;5.95;;;38.10;99.90;;;;;;5073598;28;20302;-77
2021/06/16 09:16:28;;;;;;;9.52;6.15;;;38.00;99.90;;;;;;5077010;28;20241;-78
2021/06/16 09:18:55;;;;;;;11.07;5.32;;;38.80;99.90;;;;;;5085744;28;20244;-77
2021/06/16 09:21:36;;;;;;;12.05;4.65;;;39.50;99.90;;;;;;5084619;28;20240;-78
2021/06/16 09:24:03;;;;;;;14.63;5.90;;;39.10;99.90;;;;;;5085355;28;20596;-78
2021/06/16 09:26:33;;;;;;;11.43;5.30;;;39.10;99.90;;;;;;5089935;28;20609;-78
2021/06/16 09:29:00;;;;;;;13.05;5.15;;;39.20;99.90;;;;;;5087433;28;20729;-78
2021/06/16 09:31:35;;;;;;;12.65;5.35;;;39.80;99.90;;;;;;5084660;28;20278;-78
2021/06/16 09:34:07;;;;;;;11.93;5.40;;;39.70;99.90;;;;;;5089482;28;20211;-77
2021/06/16 09:36:45;;;;;;;11.27;5.78;;;39.00;99.90;;;;;;5089881;28;20240;-77
2021/06/16 09:39:13;;;;;;;9.68;5.63;;;38.70;99.90;;;;;;5084754;28;20287;-78
2021/06/16 09:41:52;;;;;;;11.60;5.68;;;38.90;99.90;;;;;;5090031;28;20260;-78
2021/06/16 09:44:52;;;;;;;11.48;6.20;;;38.60;99.90;;;;;;5084623;28;20274;-78
2021/06/16 09:47:21;;;;;;;13.15;6.47;;;38.50;99.90;;;;;;5078707;28;20183;-77
2021/06/16 09:49:50;;;;;;;10.50;5.78;;;38.40;99.90;;;;;;5091667;28;20194;-78
2021/06/16 09:52:36;;;;;;;12.25;6.25;;;38.40;99.90;;;;;;5091555;28;20683;-79
2021/06/16 09:55:06;;;;;;;10.57;5.10;;;38.40;99.90;;;;;;5079682;28;20352;-78
2021/06/16 09:57:35;;;;;;;7.47;5.32;;;38.90;99.90;;;;;;5089098;28;20195;-78
2021/06/16 10:00:08;;;;;;;7.88;5.43;;;39.30;99.90;;;;;;5083630;28;20270;-78
2021/06/16 10:02:37;;;;;;;11.73;5.40;;;39.50;99.90;;;;;;5085923;28;20551;-77
2021/06/16 10:05:05;;;;;;;8.73;6.00;;;39.40;99.90;;;;;;5081303;28;20207;-79
2021/06/16 10:07:33;;;;;;;10.48;6.53;;;39.40;99.90;;;;;;5086160;28;20595;-78
2021/06/16 10:10:02;;;;;;;12.50;5.88;;;39.00;99.80;;;;;;5087397;28;20225;-78
2021/06/16 10:12:30;;;;;;;8.02;6.47;;;39.30;99.90;;;;;;5084436;28;20237;-80
2021/06/16 10:15:02;;;;;;;11.38;5.82;;;39.60;99.20;;;;;;5079634;28;20309;-79
2021/06/16 10:17:29;;;;;;;8.10;5.97;;;38.80;99.60;;;;;;5083609;28;20249;-80
2021/06/16 10:19:57;;;;;;;11.00;6.00;;;39.10;99.90;;;;;;5083624;28;20196;-79
2021/06/16 10:22:24;;;;;;;10.35;6.22;;;37.70;99.90;;;;;;5085118;28;20265;-79
2021/06/16 10:24:52;;;;;;;10.73;6.63;;;37.90;99.90;;;;;;5076334;28;20684;-79
2021/06/16 10:27:25;;;;;;;7.65;6.22;;;38.10;99.90;;;;;;5088626;28;20240;-82
2021/06/16 10:29:53;;;;;;;9.25;6.82;;;39.30;99.90;;;;;;5094834;28;20226;-82
2021/06/16 10:32:22;;;;;;;9.95;5.70;;;40.20;99.60;;;;;;5084381;28;20631;-80
2021/06/16 10:34:59;;;;;;;12.93;6.43;;;38.90;99.90;;;;;;5083065;28;20253;-79
2021/06/16 10:37:29;;;;;;;10.07;5.57;;;37.20;99.90;;;;;;5092449;28;20193;-80
2021/06/16 10:40:35;;;;;;;11.57;6.05;;;37.30;99.90;;;;;;5085772;28;20215;-81
2021/06/16 10:43:30;;;;;;;8.57;6.15;;;36.60;99.90;;;;;;5087338;28;20277;-80
2021/06/16 10:45:59;;;;;;;7.03;5.88;;;36.20;99.90;;;;;;5057616;28;20254;-80
2021/06/16 10:48:58;;;;;;;8.55;5.30;;;36.90;99.90;;;;;;5085472;28;20666;-78
2021/06/16 10:51:42;;;;;;;9.73;5.07;;;38.60;99.90;;;;;;5075927;28;20192;-78
2021/06/16 10:54:21;;;;;;;8.15;5.38;;;38.90;99.90;;;;;;5075298;28;20331;-81
2021/06/16 10:56:54;;;;;;;15.13;5.65;;;39.10;99.90;;;;;;5080495;28;20197;-79
2021/06/16 11:00:03;;;;;;;5.47;4.93;;;40.80;99.90;;;;;;5083531;28;20266;-80
2021/06/16 11:02:57;;;;;;;7.40;4.72;;;42.10;99.90;;;;;;5044812;28;20294;-80
2021/06/16 11:05:27;;;;;;;9.05;5.15;;;42.70;97.40;;;;;;5025234;28;20196;-78
2021/06/16 11:07:55;;;;;;;6.07;4.75;;;42.90;97.90;;;;;;5071168;28;20225;-80
2021/06/16 11:10:22;;;;;;;8.82;5.30;;;42.90;97.90;;;;;;5084569;28;20268;-81
2021/06/16 11:12:53;;;;;;;7.07;4.50;;;42.50;96.10;;;;;;5071191;28;20285;-80
2021/06/16 11:15:34;;;;;;;7.75;4.07;;;42.20;98.70;;;;;;5080535;28;20203;-79
2021/06/16 11:18:02;;;;;;;5.22;4.00;;;42.20;96.10;;;;;;5077229;28;20209;-81
2021/06/16 11:20:35;;;;;;;5.80;4.25;;;43.20;96.20;;;;;;5081812;28;20617;-80
2021/06/16 11:23:03;;;;;;;6.85;4.30;;;43.50;95.00;;;;;;5063638;28;20270;-78
2021/06/16 11:25:36;;;;;;;5.28;3.92;;;43.60;94.60;;;;;;5085515;28;20295;-80
2021/06/16 11:28:16;;;;;;;14.38;4.90;;;43.90;95.10;;;;;;5074635;28;20214;-81
2021/06/16 11:31:04;;;;;;;7.68;4.95;;;43.30;94.60;;;;;;5082820;28;20194;-79
2021/06/16 11:33:45;;;;;;;6.13;4.90;;;42.00;95.10;;;;;;5066954;28;20268;-81
2021/06/16 11:36:17;;;;;;;7.22;4.85;;;42.10;95.40;;;;;;5080669;28;20197;-81
2021/06/16 11:38:54;;;;;;;5.10;4.10;;;40.70;95.70;;;;;;5077344;28;20282;-79
2021/06/16 11:41:23;;;;;;;8.35;4.00;;;41.20;95.40;;;;;;5091688;28;20290;-80
2021/06/16 11:43:51;;;;;;;5.28;4.20;;;41.70;94.50;;;;;;5088207;28;20203;-81
2021/06/16 11:46:25;;;;;;;7.82;4.20;;;42.20;94.40;;;;;;5084550;28;20225;-80
2021/06/16 11:49:02;;;;;;;6.32;4.75;;;42.10;95.00;;;;;;5073672;28;20193;-82
2021/06/16 11:51:37;;;;;;;7.72;4.80;;;42.80;94.70;;;;;;5075256;28;20288;-79
2021/06/16 11:54:27;;;;;;;4.88;4.47;;;42.90;94.50;;;;;;5081166;28;20663;-78
2021/06/16 11:56:56;;;;;;;8.68;4.53;;;42.80;94.20;;;;;;5082296;28;20191;-79
2021/06/16 11:59:34;;;;;;;5.97;4.22;;;42.90;93.60;;;;;;5076197;28;20526;-76
2021/06/16 12:02:14;;;;;;;8.88;4.18;;;43.10;93.90;;;;;;5088727;28;20233;-81
2021/06/16 12:04:48;;;;;;;8.40;3.90;;;42.20;94.40;;;;;;5090376;28;20529;-80
2021/06/16 12:07:23;;;;;;;5.47;3.50;;;41.90;93.90;;;;;;5085468;28;20259;-79
2021/06/16 12:09:52;;;;;;;4.30;3.22;;;41.80;92.70;;;;;;5074331;28;20229;-81
2021/06/16 12:12:19;;;;;;;4.45;3.80;;;41.20;93.70;;;;;;5076149;28;20525;-80
2021/06/16 12:14:46;;;;;;;6.00;4.18;;;40.50;93.70;;;;;;5078077;28;20227;-79
2021/06/16 12:17:13;;;;;;;5.78;3.50;;;39.90;93.30;;;;;;5082216;28;20286;-80
2021/06/16 12:19:41;;;;;;;6.53;3.95;;;40.30;93.60;;;;;;5075547;28;20365;-80
2021/06/16 12:22:09;;;;;;;6.70;4.10;;;40.00;94.70;;;;;;5079942;28;20671;-79
2021/06/16 12:24:40;;;;;;;8.35;4.20;;;40.10;94.50;;;;;;5089638;28;20289;-81
2021/06/16 12:27:10;;;;;;;8.88;4.00;;;38.90;95.00;;;;;;5085566;28;20195;-80
2021/06/16 12:29:44;;;;;;;9.27;3.75;;;39.00;96.30;;;;;;5084093;28;20195;-79
2021/06/16 12:32:11;;;;;;;6.60;3.70;;;39.10;96.00;;;;;;5077029;28;20194;-79
2021/06/16 12:37:22;;;;;;;8.10;3.97;;;39.20;94.70;;;;;;5077306;28;20191;-80
2021/06/16 12:39:55;;;;;;;7.38;4.18;;;39.50;95.80;;;;;;5081465;28;20290;-80
2021/06/16 12:42:22;;;;;;;7.13;3.97;;;39.60;95.60;;;;;;5085397;28;20647;-79
2021/06/16 12:44:49;;;;;;;5.88;4.10;;;39.20;96.00;;;;;;5080042;28;20190;-79
2021/06/16 12:47:25;;;;;;;5.13;4.05;;;39.30;94.60;;;;;;5078461;28;20226;-79
2021/06/16 12:49:53;;;;;;;4.97;3.50;;;39.20;94.00;;;;;;5081110;28;20664;-79
2021/06/16 12:52:32;;;;;;;12.40;3.90;;;39.80;95.40;;;;;;5081105;28;20219;-77
2021/06/16 12:55:11;;;;;;;8.65;4.32;;;39.60;94.90;;;;;;5088659;28;20222;-77
2021/06/16 12:57:44;;;;;;;8.30;3.65;;;39.60;94.50;;;;;;5090077;28;20275;-77